Time;durP1;ratioP1;P1;durP2;ratioP2;P2;SDS_P1;SDS_P2;PMS_P1;PMS_P2;Temp;Humidity;BMP_temperature;BMP_pressure;BME280_temperature;BME280_humidity;BME280_pressure;Samples;Min_cycle;Max_cycle;Signal;HPM_P1;HPM_P2
2023/03/11 00:00:39;;;;;;;;;;;11.00;78.50;;;;;;5003358;28;90643;-38
2023/03/11 00:03:06;;;;;;;;;;;11.00;78.40;;;;;;5018585;28;88755;-38
2023/03/11 00:05:36;;;;;;;;;;;11.00;78.40;;;;;;5015249;28;89594;-39
2023/03/11 00:08:01;;;;;;;;;;;11.00;78.30;;;;;;5014706;28;89566;-39
2023/03/11 00:10:30;;;;;;;;;;;11.00;78.30;;;;;;5007142;28;88996;-39
2023/03/11 00:12:59;;;;;;;;;;;11.00;78.40;;;;;;5003255;28;89325;-39
2023/03/11 00:15:25;;;;;;;;;;;11.00;78.40;;;;;;5003686;28;87301;-38
2023/03/11 00:17:51;;;;;;;;;;;11.00;78.30;;;;;;5003456;28;88817;-39
2023/03/11 00:20:19;;;;;;;;;;;11.10;78.30;;;;;;5003513;28;87417;-39
2023/03/11 00:22:45;;;;;;;;;;;11.00;78.20;;;;;;5003197;28;87314;-39
2023/03/11 00:25:11;;;;;;;;;;;11.00;78.20;;;;;;5016816;28;88778;-39
2023/03/11 00:27:36;;;;;;;;;;;11.00;78.30;;;;;;5003529;28;89681;-38
2023/03/11 00:30:02;;;;;;;;;;;11.00;78.30;;;;;;5019890;28;87887;-39
2023/03/11 00:32:27;;;;;;;;;;;11.00;78.20;;;;;;5003383;28;91596;-43
2023/03/11 00:34:53;;;;;;;;;;;11.00;78.30;;;;;;5011460;28;87183;-39
2023/03/11 00:37:18;;;;;;;;;;;11.00;78.20;;;;;;5021154;28;87858;-38
2023/03/11 00:39:44;;;;;;;;;;;11.00;78.20;;;;;;5020157;28;89451;-38
2023/03/11 00:42:09;;;;;;;;;;;11.00;78.10;;;;;;5018170;28;87184;-39
2023/03/11 00:44:35;;;;;;;;;;;11.00;78.20;;;;;;5017403;28;89329;-39
2023/03/11 00:47:00;;;;;;;;;;;11.00;78.20;;;;;;5018438;28;89438;-39
2023/03/11 00:49:26;;;;;;;;;;;10.90;78.20;;;;;;5021148;28;87081;-39
2023/03/11 00:51:51;;;;;;;;;;;11.00;78.20;;;;;;5018721;28;89046;-39
2023/03/11 00:54:17;;;;;;;;;;;10.90;78.10;;;;;;5017277;28;87216;-39
2023/03/11 00:56:42;;;;;;;;;;;10.90;78.20;;;;;;5016546;28;88598;-39
2023/03/11 00:59:08;;;;;;;;;;;10.90;78.10;;;;;;5017009;28;88781;-39
2023/03/11 01:01:33;;;;;;;;;;;10.90;78.10;;;;;;5015555;28;87196;-39
2023/03/11 01:03:59;;;;;;;;;;;10.90;78.10;;;;;;5007298;28;89038;-38
2023/03/11 01:06:24;;;;;;;;;;;10.90;78.00;;;;;;5004125;28;89837;-38
2023/03/11 01:08:50;;;;;;;;;;;10.90;78.10;;;;;;5003232;28;86475;-39
2023/03/11 01:11:15;;;;;;;;;;;10.90;78.10;;;;;;5005687;28;87084;-38
2023/03/11 01:13:41;;;;;;;;;;;10.90;78.10;;;;;;5002637;28;87307;-39
2023/03/11 01:16:08;;;;;;;;;;;10.90;78.10;;;;;;5001881;28;88034;-39
2023/03/11 01:18:33;;;;;;;;;;;10.90;78.10;;;;;;5001970;28;89297;-38
2023/03/11 01:20:59;;;;;;;;;;;10.90;78.00;;;;;;5002888;28;87218;-39
2023/03/11 01:23:24;;;;;;;;;;;10.90;78.10;;;;;;5004385;28;88837;-38
2023/03/11 01:25:50;;;;;;;;;;;10.90;78.20;;;;;;5010562;28;89350;-39
2023/03/11 01:28:15;;;;;;;;;;;10.80;78.10;;;;;;5017055;28;88737;-38
2023/03/11 01:30:41;;;;;;;;;;;10.80;78.10;;;;;;5017171;28;88930;-39
2023/03/11 01:33:08;;;;;;;;;;;10.80;78.00;;;;;;5021312;28;88360;-39
2023/03/11 01:35:34;;;;;;;;;;;10.80;78.10;;;;;;5002611;28;88185;-39
2023/03/11 01:37:59;;;;;;;;;;;10.80;78.20;;;;;;5001989;28;89461;-38
2023/03/11 01:40:28;;;;;;;;;;;10.80;78.10;;;;;;5001756;28;88288;-39
2023/03/11 01:42:53;;;;;;;;;;;10.80;78.20;;;;;;5007263;28;87927;-39
2023/03/11 01:45:25;;;;;;;;;;;10.80;78.10;;;;;;5001930;28;89463;-39
2023/03/11 01:47:50;;;;;;;;;;;10.80;78.10;;;;;;5012327;28;87257;-39
2023/03/11 01:50:16;;;;;;;;;;;10.80;78.10;;;;;;5002591;28;87575;-39
2023/03/11 01:52:42;;;;;;;;;;;10.80;78.10;;;;;;5001881;28;88383;-39
2023/03/11 01:55:08;;;;;;;;;;;10.80;78.10;;;;;;5005438;28;87117;-39
2023/03/11 01:57:35;;;;;;;;;;;10.80;78.10;;;;;;5007754;28;88844;-39
2023/03/11 02:00:04;;;;;;;;;;;10.80;78.00;;;;;;5019048;28;87167;-39
2023/03/11 02:02:40;;;;;;;;;;;10.80;78.00;;;;;;5016962;28;88681;-39
2023/03/11 02:05:06;;;;;;;;;;;10.80;78.00;;;;;;5005101;28;90410;-39
2023/03/11 02:07:31;;;;;;;;;;;10.80;78.00;;;;;;5017280;28;87279;-39
2023/03/11 02:09:57;;;;;;;;;;;10.80;78.20;;;;;;5012564;28;88923;-39
2023/03/11 02:12:24;;;;;;;;;;;10.80;78.10;;;;;;5017409;28;89584;-39
2023/03/11 02:14:51;;;;;;;;;;;10.80;78.10;;;;;;5014953;28;87943;-39
2023/03/11 02:17:16;;;;;;;;;;;10.70;78.10;;;;;;5004481;28;89084;-39
2023/03/11 02:19:51;;;;;;;;;;;10.70;78.10;;;;;;5002043;28;87158;-39
2023/03/11 02:22:17;;;;;;;;;;;10.80;78.00;;;;;;5013333;28;89010;-39
2023/03/11 02:24:45;;;;;;;;;;;10.80;78.10;;;;;;5015982;28;88996;-39
2023/03/11 02:27:12;;;;;;;;;;;10.70;78.00;;;;;;5011996;28;87208;-39
2023/03/11 02:29:38;;;;;;;;;;;10.70;78.10;;;;;;5001932;28;88863;-39
2023/03/11 02:32:08;;;;;;;;;;;10.70;78.20;;;;;;5004874;28;89327;-39
2023/03/11 02:34:34;;;;;;;;;;;10.70;78.10;;;;;;5013713;28;87629;-39
2023/03/11 02:37:02;;;;;;;;;;;10.70;78.10;;;;;;5015563;28;88893;-38
2023/03/11 02:39:28;;;;;;;;;;;10.70;78.10;;;;;;5020685;28;87692;-39
2023/03/11 02:41:54;;;;;;;;;;;10.70;78.10;;;;;;5019923;28;88954;-39
2023/03/11 02:44:20;;;;;;;;;;;10.70;78.10;;;;;;5019409;28;89440;-39
2023/03/11 02:46:45;;;;;;;;;;;10.70;78.10;;;;;;5015876;28;86699;-39
2023/03/11 02:49:11;;;;;;;;;;;10.70;78.00;;;;;;5009770;28;88199;-38
2023/03/11 02:51:36;;;;;;;;;;;10.70;78.00;;;;;;5005069;28;88159;-39
2023/03/11 02:54:03;;;;;;;;;;;10.70;78.00;;;;;;5003935;28;88157;-38
2023/03/11 02:56:28;;;;;;;;;;;10.70;78.00;;;;;;5004791;28;89582;-38
2023/03/11 02:58:54;;;;;;;;;;;10.60;78.10;;;;;;5007361;28;89735;-40
2023/03/11 03:01:19;;;;;;;;;;;10.70;78.10;;;;;;5015440;28;88035;-39
2023/03/11 03:03:45;;;;;;;;;;;10.70;78.00;;;;;;5020881;28;88000;-39
2023/03/11 03:06:11;;;;;;;;;;;10.70;78.10;;;;;;5017810;28;87203;-39
2023/03/11 03:08:36;;;;;;;;;;;10.70;78.20;;;;;;5004505;28;89031;-38
2023/03/11 03:11:02;;;;;;;;;;;10.60;77.90;;;;;;5004740;28;88889;-38
2023/03/11 03:13:28;;;;;;;;;;;10.60;78.00;;;;;;5010905;28;87195;-39
2023/03/11 03:15:54;;;;;;;;;;;10.60;78.10;;;;;;5006229;28;87057;-38
2023/03/11 03:18:19;;;;;;;;;;;10.60;78.10;;;;;;5003207;28;90654;-38
2023/03/11 03:20:45;;;;;;;;;;;10.60;78.10;;;;;;5018810;28;87109;-39
2023/03/11 03:23:11;;;;;;;;;;;10.60;78.10;;;;;;5018258;28;87997;-38
2023/03/11 03:25:36;;;;;;;;;;;10.60;78.10;;;;;;5010335;28;87192;-39
2023/03/11 03:28:02;;;;;;;;;;;10.60;77.90;;;;;;5003903;28;88814;-39
2023/03/11 03:30:28;;;;;;;;;;;10.60;78.10;;;;;;5003992;28;89342;-38
2023/03/11 03:32:54;;;;;;;;;;;10.60;78.00;;;;;;5004195;28;87208;-38
2023/03/11 03:35:19;;;;;;;;;;;10.60;78.10;;;;;;5004701;28;88003;-39
2023/03/11 03:37:45;;;;;;;;;;;10.60;78.10;;;;;;5003672;28;89291;-38
2023/03/11 03:40:10;;;;;;;;;;;10.60;78.10;;;;;;5003837;28;87646;-39
2023/03/11 03:42:37;;;;;;;;;;;10.60;78.00;;;;;;5005178;28;88890;-39
2023/03/11 03:45:03;;;;;;;;;;;10.60;78.10;;;;;;5004107;28;87279;-38
2023/03/11 03:47:30;;;;;;;;;;;10.60;78.00;;;;;;5016974;28;88906;-38
2023/03/11 03:49:55;;;;;;;;;;;10.60;78.00;;;;;;5020362;28;89380;-39
2023/03/11 03:52:21;;;;;;;;;;;10.50;77.90;;;;;;5019233;28;87146;-38
2023/03/11 03:54:46;;;;;;;;;;;10.50;78.00;;;;;;5006451;28;89228;-39
2023/03/11 03:57:12;;;;;;;;;;;10.50;78.00;;;;;;5003511;28;89447;-38
2023/03/11 03:59:37;;;;;;;;;;;10.50;78.70;;;;;;5004246;28;86455;-38
2023/03/11 04:02:03;;;;;;;;;;;10.50;78.10;;;;;;5003807;28;88287;-38
2023/03/11 04:04:29;;;;;;;;;;;10.50;78.10;;;;;;5006210;28;89204;-38
2023/03/11 04:06:54;;;;;;;;;;;10.50;78.00;;;;;;5018153;28;88543;-38
2023/03/11 04:09:20;;;;;;;;;;;10.50;78.10;;;;;;5012491;28;89622;-38
2023/03/11 04:11:46;;;;;;;;;;;10.50;78.10;;;;;;5003615;28;87091;-39
2023/03/11 04:14:11;;;;;;;;;;;10.50;78.10;;;;;;5003966;28;89011;-39
2023/03/11 04:16:36;;;;;;;;;;;10.50;78.00;;;;;;5008594;28;89588;-40
2023/03/11 04:19:04;;;;;;;;;;;10.50;78.10;;;;;;5007332;28;87373;-39
2023/03/11 04:21:30;;;;;;;;;;;10.50;78.20;;;;;;5003594;28;87985;-39
2023/03/11 04:23:55;;;;;;;;;;;10.50;78.10;;;;;;5010978;28;88652;-38
2023/03/11 04:26:21;;;;;;;;;;;10.50;78.10;;;;;;5016269;28;87134;-38
2023/03/11 04:28:46;;;;;;;;;;;10.50;78.20;;;;;;5018035;28;88603;-40
2023/03/11 04:31:12;;;;;;;;;;;10.50;78.10;;;;;;5002792;28;88115;-39
2023/03/11 04:33:37;;;;;;;;;;;10.50;78.00;;;;;;5003248;28;90501;-39
2023/03/11 04:36:04;;;;;;;;;;;10.50;78.10;;;;;;5012115;28;89567;-38
2023/03/11 04:38:30;;;;;;;;;;;10.40;78.10;;;;;;5019182;28;87144;-39
2023/03/11 04:40:58;;;;;;;;;;;10.40;78.10;;;;;;5018710;28;88708;-38
2023/03/11 04:43:24;;;;;;;;;;;10.40;78.00;;;;;;5006731;28;89821;-39
2023/03/11 04:45:50;;;;;;;;;;;10.40;78.00;;;;;;5020151;28;87147;-39
2023/03/11 04:48:15;;;;;;;;;;;10.40;78.10;;;;;;5018382;28;87928;-39
2023/03/11 04:50:41;;;;;;;;;;;10.40;78.10;;;;;;5003337;28;87193;-39
2023/03/11 04:53:06;;;;;;;;;;;10.40;78.10;;;;;;5016907;28;88775;-38
2023/03/11 04:55:32;;;;;;;;;;;10.40;78.20;;;;;;5016665;28;89449;-39
2023/03/11 04:57:57;;;;;;;;;;;10.40;78.10;;;;;;5018038;28;87179;-38
2023/03/11 05:00:23;;;;;;;;;;;10.40;78.00;;;;;;5004384;28;88523;-39
2023/03/11 05:02:49;;;;;;;;;;;10.40;78.20;;;;;;5002609;28;88218;-38
2023/03/11 05:05:15;;;;;;;;;;;10.40;78.00;;;;;;5002807;28;87944;-39
2023/03/11 05:07:41;;;;;;;;;;;10.40;78.10;;;;;;5005610;28;89132;-38
2023/03/11 05:10:06;;;;;;;;;;;10.40;78.00;;;;;;5002626;28;87122;-38
2023/03/11 05:12:32;;;;;;;;;;;10.30;78.10;;;;;;5019034;28;89033;-38
2023/03/11 05:14:57;;;;;;;;;;;10.30;78.10;;;;;;5015976;28;89172;-38
2023/03/11 05:17:23;;;;;;;;;;;10.30;78.10;;;;;;5003241;28;87892;-39
2023/03/11 05:19:49;;;;;;;;;;;10.40;78.10;;;;;;5002226;28;88945;-39
2023/03/11 05:22:15;;;;;;;;;;;10.40;78.10;;;;;;5009047;28;88356;-39
2023/03/11 05:24:40;;;;;;;;;;;10.30;78.10;;;;;;5002371;28;87218;-38
2023/03/11 05:27:06;;;;;;;;;;;10.30;78.00;;;;;;5002246;28;89287;-38
2023/03/11 05:29:31;;;;;;;;;;;10.40;78.20;;;;;;5005109;28;89439;-39
2023/03/11 05:31:57;;;;;;;;;;;10.30;78.10;;;;;;5002612;28;89089;-39
2023/03/11 05:34:22;;;;;;;;;;;10.30;78.10;;;;;;5002310;28;89876;-39
2023/03/11 05:36:48;;;;;;;;;;;10.30;78.10;;;;;;5003394;28;86387;-38
2023/03/11 05:39:13;;;;;;;;;;;10.30;78.10;;;;;;5001805;28;88006;-39
2023/03/11 05:41:39;;;;;;;;;;;10.30;78.10;;;;;;5002576;28;88178;-38
2023/03/11 05:44:05;;;;;;;;;;;10.30;78.10;;;;;;5002324;28;88902;-39
2023/03/11 05:46:31;;;;;;;;;;;10.30;78.00;;;;;;5016713;28;88865;-39
2023/03/11 05:48:58;;;;;;;;;;;10.30;78.00;;;;;;5018751;28;90385;-39
2023/03/11 05:51:23;;;;;;;;;;;10.30;78.10;;;;;;5020891;28;87992;-38
2023/03/11 05:53:49;;;;;;;;;;;10.30;78.10;;;;;;5018488;28;87985;-38
2023/03/11 05:56:15;;;;;;;;;;;10.30;78.00;;;;;;5018631;28;87852;-39
2023/03/11 05:58:40;;;;;;;;;;;10.30;78.10;;;;;;5016364;28;88835;-38
2023/03/11 06:01:07;;;;;;;;;;;10.30;78.10;;;;;;5020123;28;89067;-39
2023/03/11 06:03:32;;;;;;;;;;;10.30;78.00;;;;;;5018314;28;88200;-38
2023/03/11 06:05:58;;;;;;;;;;;10.30;78.00;;;;;;5020919;28;89018;-39
2023/03/11 06:08:23;;;;;;;;;;;10.30;78.00;;;;;;5021322;28;90891;-39
2023/03/11 06:10:49;;;;;;;;;;;10.30;78.00;;;;;;5021593;28;87041;-38
2023/03/11 06:13:14;;;;;;;;;;;10.30;77.90;;;;;;5023528;28;88716;-39
2023/03/11 06:15:40;;;;;;;;;;;10.30;78.10;;;;;;5005401;28;87132;-39
2023/03/11 06:18:05;;;;;;;;;;;10.30;78.10;;;;;;5006227;28;88895;-39
2023/03/11 06:20:31;;;;;;;;;;;10.20;78.00;;;;;;5020940;28;89322;-38
2023/03/11 06:22:56;;;;;;;;;;;10.20;78.00;;;;;;5020961;28;87150;-38
2023/03/11 06:25:22;;;;;;;;;;;10.30;78.10;;;;;;5020925;28;87749;-39
2023/03/11 06:27:49;;;;;;;;;;;10.30;78.10;;;;;;5020202;28;88376;-39
2023/03/11 06:30:15;;;;;;;;;;;10.30;78.00;;;;;;5019634;28;87216;-39
2023/03/11 06:32:42;;;;;;;;;;;10.30;78.00;;;;;;5004530;28;88968;-39
2023/03/11 06:35:08;;;;;;;;;;;10.30;78.00;;;;;;5008010;28;87240;-38
2023/03/11 06:37:34;;;;;;;;;;;10.20;78.00;;;;;;5013309;28;88739;-39
2023/03/11 06:40:00;;;;;;;;;;;10.30;78.10;;;;;;5019776;28;89626;-39
2023/03/11 06:42:26;;;;;;;;;;;10.20;78.10;;;;;;5021436;28;87148;-38
2023/03/11 06:44:51;;;;;;;;;;;10.30;78.00;;;;;;5021502;28;88205;-39
2023/03/11 06:47:17;;;;;;;;;;;10.20;78.00;;;;;;5022271;28;87308;-38
2023/03/11 06:49:42;;;;;;;;;;;10.20;78.10;;;;;;5020497;28;86420;-39
2023/03/11 06:52:08;;;;;;;;;;;10.20;78.00;;;;;;5019146;28;88111;-38
2023/03/11 06:54:34;;;;;;;;;;;10.20;78.00;;;;;;5021642;28;89322;-38
2023/03/11 06:57:00;;;;;;;;;;;10.20;78.00;;;;;;5007124;28;88044;-39
2023/03/11 06:59:27;;;;;;;;;;;10.20;78.00;;;;;;5004202;28;89672;-39
2023/03/11 07:01:52;;;;;;;;;;;10.20;78.10;;;;;;5004707;28;87097;-38
2023/03/11 07:04:18;;;;;;;;;;;10.20;78.00;;;;;;5004624;28;88936;-38
2023/03/11 07:06:43;;;;;;;;;;;10.20;78.00;;;;;;5004355;28;89178;-39
2023/03/11 07:09:09;;;;;;;;;;;10.20;78.10;;;;;;5004355;28;87119;-38
2023/03/11 07:11:34;;;;;;;;;;;10.20;78.00;;;;;;5004734;28;88847;-38
2023/03/11 07:14:00;;;;;;;;;;;10.20;77.90;;;;;;5004824;28;88921;-39
2023/03/11 07:16:27;;;;;;;;;;;10.20;78.00;;;;;;5007094;28;87131;-39
2023/03/11 07:18:57;;;;;;;;;;;10.20;78.00;;;;;;5003926;28;90131;-38
2023/03/11 07:21:23;;;;;;;;;;;10.20;78.00;;;;;;5003769;28;88113;-38
2023/03/11 07:23:57;;;;;;;;;;;10.20;77.90;;;;;;5004077;28;88378;-39
2023/03/11 07:26:23;;;;;;;;;;;10.20;77.90;;;;;;5019861;28;89342;-39
2023/03/11 07:28:48;;;;;;;;;;;10.20;77.90;;;;;;5020329;28;87792;-38
2023/03/11 07:31:19;;;;;;;;;;;10.20;77.90;;;;;;5022331;28;89530;-38
2023/03/11 07:33:44;;;;;;;;;;;10.20;77.90;;;;;;5018633;28;89587;-38
2023/03/11 07:36:11;;;;;;;;;;;10.20;78.00;;;;;;5006802;28;87136;-40
2023/03/11 07:38:37;;;;;;;;;;;10.20;77.90;;;;;;5017564;28;88391;-39
2023/03/11 07:41:03;;;;;;;;;;;10.30;77.90;;;;;;5004088;28;87178;-39
2023/03/11 07:43:29;;;;;;;;;;;10.20;77.80;;;;;;5003968;28;89316;-38
2023/03/11 07:46:08;;;;;;;;;;;10.30;77.90;;;;;;5003176;28;90654;-39
2023/03/11 07:48:35;;;;;;;;;;;10.20;77.80;;;;;;5004166;28;87345;-38
2023/03/11 07:51:04;;;;;;;;;;;10.20;77.80;;;;;;5004117;28;87749;-39
2023/03/11 07:53:29;;;;;;;;;;;10.20;77.80;;;;;;5019519;28;87224;-39
2023/03/11 07:55:58;;;;;;;;;;;10.20;77.80;;;;;;5018894;28;87203;-38
2023/03/11 07:58:24;;;;;;;;;;;10.20;77.80;;;;;;5020397;28;88560;-38
2023/03/11 08:00:50;;;;;;;;;;;10.20;77.80;;;;;;5023742;28;89926;-39
2023/03/11 08:03:16;;;;;;;;;;;10.20;77.80;;;;;;5020911;28;87171;-38
2023/03/11 08:05:41;;;;;;;;;;;10.30;77.80;;;;;;5018969;28;89409;-39
2023/03/11 08:08:07;;;;;;;;;;;10.30;77.80;;;;;;5020647;28;87183;-39
2023/03/11 08:10:35;;;;;;;;;;;10.30;77.80;;;;;;5004844;28;87948;-39
2023/03/11 08:13:00;;;;;;;;;;;10.20;77.70;;;;;;5003354;28;88556;-39
2023/03/11 08:15:26;;;;;;;;;;;10.20;77.80;;;;;;5011092;28;87961;-38
2023/03/11 08:17:51;;;;;;;;;;;10.30;77.90;;;;;;5020801;28;88578;-39
2023/03/11 08:20:17;;;;;;;;;;;10.20;77.80;;;;;;5016918;28;88972;-40
2023/03/11 08:22:42;;;;;;;;;;;10.20;77.80;;;;;;5021204;28;87806;-39
2023/03/11 08:25:08;;;;;;;;;;;10.20;77.80;;;;;;5014425;28;88145;-39
2023/03/11 08:27:33;;;;;;;;;;;10.30;77.80;;;;;;5021113;28;86971;-38
2023/03/11 08:29:59;;;;;;;;;;;10.30;77.80;;;;;;5018819;28;88604;-40
2023/03/11 08:32:24;;;;;;;;;;;10.30;77.80;;;;;;5003365;28;89640;-39
2023/03/11 08:34:50;;;;;;;;;;;10.30;77.80;;;;;;5002307;28;88244;-39
2023/03/11 08:37:15;;;;;;;;;;;10.30;77.70;;;;;;5003170;28;90601;-39
2023/03/11 08:39:41;;;;;;;;;;;10.30;77.70;;;;;;5002780;28;89646;-38
2023/03/11 08:42:06;;;;;;;;;;;10.30;77.80;;;;;;5020143;28;87713;-38
2023/03/11 08:44:32;;;;;;;;;;;10.30;77.80;;;;;;5012327;28;88839;-39
2023/03/11 08:46:57;;;;;;;;;;;10.30;78.00;;;;;;5015340;28;87958;-39
2023/03/11 08:49:23;;;;;;;;;;;10.30;78.00;;;;;;5003412;28;88153;-38
2023/03/11 08:51:48;;;;;;;;;;;10.30;78.00;;;;;;5002904;28;88613;-38
2023/03/11 08:54:14;;;;;;;;;;;10.30;78.00;;;;;;5004695;28;88036;-38
2023/03/11 08:56:39;;;;;;;;;;;10.30;78.00;;;;;;5014524;28;88777;-39
2023/03/11 08:59:07;;;;;;;;;;;10.30;78.00;;;;;;5001807;28;89492;-39
2023/03/11 09:01:32;;;;;;;;;;;10.30;78.10;;;;;;5002929;28;87639;-39
2023/03/11 09:03:58;;;;;;;;;;;10.30;78.10;;;;;;5005322;28;89251;-38
2023/03/11 09:06:24;;;;;;;;;;;10.30;78.20;;;;;;5004071;28;87974;-38
2023/03/11 09:08:49;;;;;;;;;;;10.30;78.10;;;;;;5003316;28;89184;-38
2023/03/11 09:11:15;;;;;;;;;;;10.30;78.00;;;;;;5003305;28;89529;-39
2023/03/11 09:13:41;;;;;;;;;;;10.30;77.90;;;;;;5009003;28;87206;-38
2023/03/11 09:16:14;;;;;;;;;;;10.30;78.00;;;;;;5010685;28;88883;-39
2023/03/11 09:18:39;;;;;;;;;;;10.30;78.00;;;;;;5014902;28;91303;-38
2023/03/11 09:21:05;;;;;;;;;;;10.40;78.00;;;;;;5014812;28;88122;-38
2023/03/11 09:23:30;;;;;;;;;;;10.30;77.90;;;;;;5015731;28;88153;-39
2023/03/11 09:25:56;;;;;;;;;;;10.40;77.80;;;;;;5019036;28;88216;-39
2023/03/11 09:28:22;;;;;;;;;;;10.40;77.80;;;;;;5017019;28;89017;-38
2023/03/11 09:30:47;;;;;;;;;;;10.40;77.90;;;;;;5010166;28;89386;-39
2023/03/11 09:33:13;;;;;;;;;;;10.40;78.10;;;;;;5002498;28;87635;-38
2023/03/11 09:35:38;;;;;;;;;;;10.40;78.10;;;;;;5002219;28;88560;-39
2023/03/11 09:38:04;;;;;;;;;;;10.40;77.90;;;;;;5002566;28;88038;-40
2023/03/11 09:40:41;;;;;;;;;;;10.40;77.80;;;;;;5005147;28;87131;-38
2023/03/11 09:43:22;;;;;;;;;;;10.40;77.60;;;;;;5006188;28;88461;-39
2023/03/11 09:45:52;;;;;;;;;;;10.40;77.60;;;;;;5022532;28;89889;-39
2023/03/11 09:48:37;;;;;;;;;;;10.40;77.70;;;;;;5008250;28;88088;-38
2023/03/11 09:51:14;;;;;;;;;;;10.40;77.90;;;;;;5021074;28;89840;-38
2023/03/11 09:53:43;;;;;;;;;;;10.40;77.80;;;;;;5017790;28;87790;-38
2023/03/11 09:56:12;;;;;;;;;;;10.40;77.70;;;;;;5007152;28;89079;-39
2023/03/11 09:58:37;;;;;;;;;;;10.40;77.70;;;;;;5016519;28;87872;-38
2023/03/11 10:01:09;;;;;;;;;;;10.40;77.80;;;;;;5020661;28;87763;-38
2023/03/11 10:03:34;;;;;;;;;;;10.40;77.70;;;;;;5021871;28;88916;-38
2023/03/11 10:06:11;;;;;;;;;;;10.40;77.70;;;;;;5021734;28;89213;-39
2023/03/11 10:08:55;;;;;;;;;;;10.40;77.70;;;;;;5008782;28;87024;-38
2023/03/11 10:11:43;;;;;;;;;;;10.50;77.70;;;;;;5023323;28;88658;-38
2023/03/11 10:14:09;;;;;;;;;;;10.40;77.80;;;;;;5020562;28;88451;-38
2023/03/11 10:16:53;;;;;;;;;;;10.40;77.80;;;;;;5020014;28;88507;-38
2023/03/11 10:19:37;;;;;;;;;;;10.50;77.80;;;;;;5005447;28;87908;-39
2023/03/11 10:22:19;;;;;;;;;;;10.50;77.90;;;;;;5005439;28;87293;-39
2023/03/11 10:24:50;;;;;;;;;;;10.40;77.90;;;;;;5005389;28;88817;-38
2023/03/11 10:27:20;;;;;;;;;;;10.40;77.90;;;;;;5011766;28;89677;-38
2023/03/11 10:30:06;;;;;;;;;;;10.50;78.00;;;;;;5017326;28;87837;-39
2023/03/11 10:32:41;;;;;;;;;;;10.50;77.90;;;;;;5008150;28;87857;-39
2023/03/11 10:35:26;;;;;;;;;;;10.40;77.80;;;;;;5007914;28;89428;-39
2023/03/11 10:37:53;;;;;;;;;;;10.50;77.90;;;;;;5013090;28;87429;-38
2023/03/11 10:40:27;;;;;;;;;;;10.50;77.80;;;;;;5017721;28;90532;-38
2023/03/11 10:42:54;;;;;;;;;;;10.50;77.90;;;;;;5005171;28;87162;-38
2023/03/11 10:45:22;;;;;;;;;;;10.50;78.00;;;;;;5005511;28;89003;-38
2023/03/11 10:47:47;;;;;;;;;;;10.50;77.90;;;;;;5004722;28;89330;-38
2023/03/11 10:50:16;;;;;;;;;;;10.50;77.90;;;;;;5004522;28;87121;-39
2023/03/11 10:53:03;;;;;;;;;;;10.50;78.10;;;;;;5005330;28;87457;-38
2023/03/11 10:55:29;;;;;;;;;;;10.50;78.00;;;;;;5018783;28;88971;-38
2023/03/11 10:58:04;;;;;;;;;;;10.50;78.00;;;;;;5016814;28;87143;-39
2023/03/11 11:00:30;;;;;;;;;;;10.50;78.00;;;;;;5005793;28;88457;-38
2023/03/11 11:03:00;;;;;;;;;;;10.50;78.10;;;;;;5008576;28;87741;-39
2023/03/11 11:05:29;;;;;;;;;;;10.50;77.90;;;;;;5015138;28;88507;-38
2023/03/11 11:08:05;;;;;;;;;;;10.60;77.90;;;;;;5014220;28;90042;-38
2023/03/11 11:10:30;;;;;;;;;;;10.60;78.00;;;;;;5013601;28;87144;-39
2023/03/11 11:13:00;;;;;;;;;;;10.60;77.90;;;;;;5008598;28;87936;-39
2023/03/11 11:15:36;;;;;;;;;;;10.60;77.80;;;;;;5008802;28;89264;-39
2023/03/11 11:18:01;;;;;;;;;;;10.60;77.90;;;;;;5015510;28;87296;-38
2023/03/11 11:20:28;;;;;;;;;;;10.60;77.80;;;;;;5013934;28;89502;-39
2023/03/11 11:22:55;;;;;;;;;;;10.70;77.60;;;;;;5012300;28;87094;-39
2023/03/11 11:25:25;;;;;;;;;;;10.70;77.80;;;;;;5007971;28;88816;-39
2023/03/11 11:27:55;;;;;;;;;;;10.70;77.60;;;;;;5003836;28;89517;-39
2023/03/11 11:30:20;;;;;;;;;;;10.60;77.70;;;;;;5007253;28;88469;-38
2023/03/11 11:32:46;;;;;;;;;;;10.60;77.80;;;;;;5014341;28;90178;-38
2023/03/11 11:35:14;;;;;;;;;;;10.70;77.90;;;;;;5010797;28;88469;-39
2023/03/11 11:37:45;;;;;;;;;;;10.70;77.60;;;;;;5018050;28;88152;-38
2023/03/11 11:40:13;;;;;;;;;;;10.70;77.50;;;;;;5006771;28;87361;-39
2023/03/11 11:42:41;;;;;;;;;;;10.70;77.60;;;;;;5004401;28;87202;-39
2023/03/11 11:45:10;;;;;;;;;;;10.70;77.70;;;;;;5004677;28;87417;-38
2023/03/11 11:47:38;;;;;;;;;;;10.70;77.40;;;;;;5009335;28;88136;-38
2023/03/11 11:50:05;;;;;;;;;;;10.70;77.20;;;;;;5003717;28;87126;-38
2023/03/11 11:52:34;;;;;;;;;;;10.70;77.50;;;;;;5004139;28;89149;-38
2023/03/11 11:55:00;;;;;;;;;;;10.70;77.70;;;;;;5003350;28;90174;-39
2023/03/11 11:57:26;;;;;;;;;;;10.70;77.60;;;;;;5005529;28;87876;-39
2023/03/11 11:59:51;;;;;;;;;;;10.70;77.70;;;;;;5004049;28;88567;-38
2023/03/11 12:02:19;;;;;;;;;;;10.70;77.30;;;;;;5009060;28;88568;-39
2023/03/11 12:04:53;;;;;;;;;;;10.70;77.60;;;;;;5014360;28;86982;-39
2023/03/11 12:07:22;;;;;;;;;;;10.70;77.60;;;;;;5019645;28;89283;-38
2023/03/11 12:09:47;;;;;;;;;;;10.70;77.90;;;;;;5022436;28;87244;-38
2023/03/11 12:12:25;;;;;;;;;;;10.70;77.90;;;;;;5019390;28;89007;-39
2023/03/11 12:14:56;;;;;;;;;;;10.70;77.90;;;;;;5003657;28;88469;-39
2023/03/11 12:17:23;;;;;;;;;;;10.70;78.00;;;;;;5003537;28;87106;-38
2023/03/11 12:19:52;;;;;;;;;;;10.70;77.90;;;;;;5018776;28;88647;-38
2023/03/11 12:22:30;;;;;;;;;;;10.70;77.80;;;;;;5019578;28;88088;-39
2023/03/11 12:24:55;;;;;;;;;;;10.70;77.80;;;;;;5022794;28;87009;-39
2023/03/11 12:27:24;;;;;;;;;;;10.70;77.70;;;;;;5018860;28;89462;-38
2023/03/11 12:29:58;;;;;;;;;;;10.70;77.70;;;;;;5011490;28;87272;-39
2023/03/11 12:32:34;;;;;;;;;;;10.70;77.70;;;;;;5014624;28;88774;-38
2023/03/11 12:35:03;;;;;;;;;;;10.70;77.70;;;;;;5003496;28;87352;-39
2023/03/11 12:37:29;;;;;;;;;;;10.70;77.70;;;;;;5015307;28;86448;-39
2023/03/11 12:39:54;;;;;;;;;;;10.70;77.80;;;;;;5018557;28;87330;-39
2023/03/11 12:42:21;;;;;;;;;;;10.80;77.80;;;;;;5015385;28;90026;-38
2023/03/11 12:44:47;;;;;;;;;;;10.80;77.90;;;;;;5021276;28;88846;-39
2023/03/11 12:47:13;;;;;;;;;;;10.80;77.90;;;;;;5014548;28;90016;-39
2023/03/11 12:49:43;;;;;;;;;;;10.80;77.90;;;;;;5002918;28;87101;-39
2023/03/11 12:52:12;;;;;;;;;;;10.80;77.90;;;;;;5003148;28;89003;-39
2023/03/11 12:54:44;;;;;;;;;;;10.80;78.00;;;;;;5006891;28;88014;-38
2023/03/11 12:57:15;;;;;;;;;;;10.80;78.00;;;;;;5003521;28;87217;-38
2023/03/11 12:59:55;;;;;;;;;;;10.80;78.00;;;;;;5002848;28;88554;-39
2023/03/11 13:02:35;;;;;;;;;;;10.80;77.90;;;;;;5003230;28;87271;-38
2023/03/11 13:05:03;;;;;;;;;;;10.80;77.90;;;;;;5017503;28;87146;-39
2023/03/11 13:07:49;;;;;;;;;;;10.80;77.90;;;;;;5018956;28;88706;-38
2023/03/11 13:10:15;;;;;;;;;;;10.80;77.90;;;;;;5002193;28;89469;-39
2023/03/11 13:12:40;;;;;;;;;;;10.80;77.90;;;;;;5002772;28;90244;-39
2023/03/11 13:15:18;;;;;;;;;;;10.80;77.90;;;;;;5014214;28;88005;-38
2023/03/11 13:17:59;;;;;;;;;;;10.80;77.90;;;;;;5018220;28;87719;-38
2023/03/11 13:20:40;;;;;;;;;;;10.80;77.90;;;;;;5017285;28;89276;-38
2023/03/11 13:23:08;;;;;;;;;;;10.80;77.90;;;;;;5017375;28;89523;-38
2023/03/11 13:25:37;;;;;;;;;;;10.80;77.90;;;;;;5002470;28;87849;-38
2023/03/11 13:28:21;;;;;;;;;;;10.80;77.90;;;;;;5003008;28;87547;-39
2023/03/11 13:30:57;;;;;;;;;;;10.80;77.80;;;;;;5004908;28;89271;-39
2023/03/11 13:33:23;;;;;;;;;;;10.80;77.90;;;;;;5010077;28;89730;-39
2023/03/11 13:36:07;;;;;;;;;;;10.80;77.90;;;;;;5008706;28;90136;-39
2023/03/11 13:38:35;;;;;;;;;;;10.80;77.90;;;;;;5008906;28;87253;-39
2023/03/11 13:41:02;;;;;;;;;;;10.80;77.80;;;;;;5009801;28;89051;-39
2023/03/11 13:43:28;;;;;;;;;;;10.90;78.00;;;;;;5003898;28;90098;-40
2023/03/11 13:45:59;;;;;;;;;;;10.80;78.10;;;;;;5012557;28;87538;-38
2023/03/11 13:48:29;;;;;;;;;;;10.90;78.00;;;;;;5011838;28;88936;-39
2023/03/11 13:50:59;;;;;;;;;;;10.80;77.90;;;;;;5001872;28;89270;-39
2023/03/11 13:53:28;;;;;;;;;;;10.80;78.10;;;;;;5005631;28;86391;-39
2023/03/11 13:55:54;;;;;;;;;;;10.80;78.00;;;;;;5001852;28;89705;-38
2023/03/11 13:58:23;;;;;;;;;;;10.80;78.00;;;;;;5016480;28;87268;-39
2023/03/11 14:00:56;;;;;;;;;;;10.80;78.00;;;;;;5017091;28;88032;-39
2023/03/11 14:03:24;;;;;;;;;;;10.80;78.00;;;;;;5017168;28;88931;-39
2023/03/11 14:06:16;;;;;;;;;;;10.80;78.00;;;;;;5018274;28;87249;-38
2023/03/11 14:08:42;;;;;;;;;;;10.80;78.10;;;;;;5010762;28;88953;-39
2023/03/11 14:11:09;;;;;;;;;;;10.80;78.00;;;;;;5017903;28;88363;-39
2023/03/11 14:13:39;;;;;;;;;;;10.80;78.10;;;;;;5018476;28;87208;-39
2023/03/11 14:16:09;;;;;;;;;;;10.80;78.70;;;;;;5004694;28;89098;-38
2023/03/11 14:18:39;;;;;;;;;;;10.80;78.10;;;;;;5016927;28;87245;-39